createdAt,value
2018-06-15T00:00:40.165Z,17.85
2018-06-15T00:01:40.148Z,17.89
2018-06-15T00:02:40.216Z,17.92
2018-06-15T00:03:40.167Z,17.87
2018-06-15T00:04:40.168Z,17.89
2018-06-15T00:05:40.173Z,17.89
2018-06-15T00:06:40.170Z,17.85
2018-06-15T00:07:40.157Z,17.83
2018-06-15T00:08:40.175Z,17.83
2018-06-15T00:09:40.146Z,17.81
2018-06-15T00:10:40.172Z,17.75
2018-06-15T00:11:40.154Z,17.73
2018-06-15T00:12:40.203Z,17.73
2018-06-15T00:13:40.149Z,17.66
2018-06-15T00:14:40.195Z,17.71
2018-06-15T00:15:40.178Z,17.63
2018-06-15T00:16:40.189Z,17.66
2018-06-15T00:17:40.206Z,17.63
2018-06-15T00:18:40.224Z,17.62
2018-06-15T00:19:40.184Z,17.63
2018-06-15T00:20:40.173Z,17.59
2018-06-15T00:21:40.246Z,17.65
2018-06-15T00:22:40.185Z,17.63
2018-06-15T00:23:40.201Z,17.57
2018-06-15T00:24:40.171Z,17.62
2018-06-15T00:25:40.174Z,17.65
2018-06-15T00:26:40.312Z,17.71
2018-06-15T00:27:40.170Z,17.73
2018-06-15T00:28:40.176Z,17.73
2018-06-15T00:29:40.276Z,17.75
2018-06-15T00:30:40.149Z,17.76
2018-06-15T00:31:40.181Z,17.72
2018-06-15T00:32:54.222Z,17.67
2018-06-15T00:33:40.209Z,17.73
2018-06-15T00:34:40.188Z,17.77
2018-06-15T00:35:40.224Z,17.79
2018-06-15T00:36:40.285Z,17.78
2018-06-15T00:37:40.163Z,17.8
2018-06-15T00:38:40.360Z,17.81
2018-06-15T00:39:40.278Z,17.83
2018-06-15T00:40:40.215Z,17.79
2018-06-15T00:41:40.322Z,17.8
2018-06-15T00:42:40.271Z,17.8
2018-06-15T00:43:40.271Z,17.82
2018-06-15T00:44:40.285Z,17.85
2018-06-15T00:45:40.280Z,17.85
2018-06-15T00:46:40.282Z,17.86
2018-06-15T00:47:40.306Z,17.87
2018-06-15T00:48:40.441Z,17.87
2018-06-15T00:49:40.349Z,17.89
2018-06-15T00:50:40.327Z,17.87
2018-06-15T00:51:40.219Z,17.9
2018-06-15T00:52:40.648Z,17.91
2018-06-15T00:53:40.198Z,17.89
2018-06-15T00:54:40.257Z,17.93
2018-06-15T00:55:40.204Z,17.93
2018-06-15T00:56:40.292Z,17.94
2018-06-15T00:57:40.206Z,17.92
2018-06-15T00:58:40.260Z,17.96
2018-06-15T00:59:40.231Z,17.94
2018-06-15T01:00:40.187Z,17.97
2018-06-15T01:01:40.193Z,17.97
2018-06-15T01:02:40.247Z,17.97
2018-06-15T01:03:40.214Z,17.96
2018-06-15T01:04:40.181Z,17.95
2018-06-15T01:05:40.211Z,17.92
2018-06-15T01:06:40.205Z,17.89
2018-06-15T01:07:40.196Z,17.88
2018-06-15T01:08:40.209Z,17.86
2018-06-15T01:09:40.218Z,17.89
2018-06-15T01:10:40.187Z,17.87
2018-06-15T01:11:40.214Z,17.86
2018-06-15T01:12:40.204Z,17.88
2018-06-15T01:13:40.200Z,17.87
2018-06-15T01:14:40.199Z,17.89
2018-06-15T01:15:40.216Z,17.87
2018-06-15T01:16:40.196Z,17.89
2018-06-15T01:17:40.224Z,17.87
2018-06-15T01:18:40.191Z,17.88
2018-06-15T01:19:40.187Z,17.88
2018-06-15T01:20:40.554Z,17.88
2018-06-15T01:21:40.213Z,17.86
2018-06-15T01:22:40.251Z,17.85
2018-06-15T01:23:40.216Z,17.86
2018-06-15T01:24:40.397Z,17.85
2018-06-15T01:25:40.211Z,17.85
2018-06-15T01:26:40.270Z,17.86
2018-06-15T01:27:40.210Z,17.83
2018-06-15T01:28:40.295Z,17.87
2018-06-15T01:29:40.261Z,17.87
2018-06-15T01:30:40.208Z,17.88
2018-06-15T01:31:40.249Z,17.89
2018-06-15T01:32:40.217Z,17.89
2018-06-15T01:33:40.209Z,17.89
2018-06-15T01:34:40.210Z,17.88
2018-06-15T01:35:40.282Z,17.89
2018-06-15T01:36:40.406Z,17.89
2018-06-15T01:37:40.438Z,17.82
2018-06-15T01:38:40.403Z,17.79
2018-06-15T01:39:40.298Z,17.8
2018-06-15T01:40:40.214Z,17.82
2018-06-15T01:41:40.254Z,17.81
2018-06-15T01:42:40.226Z,17.81
2018-06-15T01:43:40.240Z,17.77
2018-06-15T01:44:40.272Z,17.77
2018-06-15T01:45:40.358Z,17.8
2018-06-15T01:46:40.642Z,17.79
2018-06-15T01:47:40.262Z,17.82
2018-06-15T01:48:40.398Z,17.82
2018-06-15T01:49:40.263Z,17.83
2018-06-15T01:50:40.231Z,17.83
2018-06-15T01:51:40.263Z,17.84
2018-06-15T01:52:40.226Z,17.84
2018-06-15T01:53:40.412Z,17.85
2018-06-15T01:54:40.448Z,17.82
2018-06-15T01:55:40.228Z,17.8
2018-06-15T01:56:40.297Z,17.76
2018-06-15T01:57:40.235Z,17.77
2018-06-15T01:58:40.270Z,17.77
2018-06-15T01:59:40.281Z,17.78
2018-06-15T02:00:40.367Z,17.8
2018-06-15T02:01:40.284Z,17.82
2018-06-15T02:02:40.259Z,17.82
2018-06-15T02:03:40.217Z,17.82
2018-06-15T02:04:40.281Z,17.82
2018-06-15T02:05:40.358Z,17.84
2018-06-15T02:06:40.236Z,17.84
2018-06-15T02:07:40.696Z,17.83
2018-06-15T02:08:40.252Z,17.86
2018-06-15T02:09:40.347Z,17.84
2018-06-15T02:10:40.222Z,17.86
2018-06-15T02:11:40.241Z,17.84
2018-06-15T02:12:40.255Z,17.87
2018-06-15T02:13:40.229Z,17.83
2018-06-15T02:14:40.256Z,17.83
2018-06-15T02:15:40.253Z,17.86
2018-06-15T02:16:40.238Z,17.84
2018-06-15T02:17:40.232Z,17.84
2018-06-15T02:18:40.254Z,17.87
2018-06-15T02:19:40.212Z,17.87
2018-06-15T02:20:40.244Z,17.87
2018-06-15T02:21:40.217Z,17.86
2018-06-15T02:22:40.238Z,17.84
2018-06-15T02:23:40.215Z,17.86
2018-06-15T02:24:40.234Z,17.86
2018-06-15T02:25:40.214Z,17.86
2018-06-15T02:26:40.224Z,17.82
2018-06-15T02:27:40.227Z,17.82
2018-06-15T02:28:40.276Z,17.82
2018-06-15T02:29:40.232Z,17.81
2018-06-15T02:30:40.283Z,17.8
2018-06-15T02:31:40.344Z,17.77
2018-06-15T02:32:40.565Z,17.77
2018-06-15T02:33:40.276Z,17.77
2018-06-15T02:34:40.246Z,17.77
2018-06-15T02:35:40.228Z,17.77
2018-06-15T02:36:40.349Z,17.78
2018-06-15T02:37:40.345Z,17.78
2018-06-15T02:38:40.317Z,17.79
2018-06-15T02:39:40.281Z,17.79
2018-06-15T02:40:40.384Z,17.81
2018-06-15T02:41:40.269Z,17.82
2018-06-15T02:42:40.511Z,17.82
2018-06-15T02:43:40.267Z,17.81
2018-06-15T02:44:40.265Z,17.81
2018-06-15T02:45:40.238Z,17.8
2018-06-15T02:46:40.294Z,17.78
2018-06-15T02:47:40.265Z,17.77
2018-06-15T02:48:40.261Z,17.76
2018-06-15T02:49:40.269Z,17.76
2018-06-15T02:50:40.283Z,17.75
2018-06-15T02:51:40.500Z,17.72
2018-06-15T02:52:40.398Z,17.7
2018-06-15T02:53:40.227Z,17.68
2018-06-15T02:54:40.281Z,17.65
2018-06-15T02:55:40.526Z,17.65
2018-06-15T02:56:40.281Z,17.65
2018-06-15T02:57:40.404Z,17.64
2018-06-15T02:58:40.263Z,17.61
2018-06-15T02:59:40.280Z,17.63
2018-06-15T03:00:40.253Z,17.62
2018-06-15T03:01:40.345Z,17.6
2018-06-15T03:02:40.272Z,17.59
2018-06-15T03:03:40.271Z,17.56
2018-06-15T03:04:40.307Z,17.55
2018-06-15T03:05:40.285Z,17.52
2018-06-15T03:06:40.268Z,17.51
2018-06-15T03:07:40.238Z,17.49
2018-06-15T03:08:40.340Z,17.44
2018-06-15T03:09:40.260Z,17.4
2018-06-15T03:10:40.252Z,17.33
2018-06-15T03:11:40.335Z,17.28
2018-06-15T03:12:40.250Z,17.29
2018-06-15T03:13:40.282Z,17.28
2018-06-15T03:14:40.391Z,17.27
2018-06-15T03:15:40.387Z,17.28
2018-06-15T03:16:40.283Z,17.23
2018-06-15T03:17:40.284Z,17.22
2018-06-15T03:18:40.268Z,17.22
2018-06-15T03:19:40.316Z,17.21
2018-06-15T03:20:40.283Z,17.22
2018-06-15T03:21:40.258Z,17.19
2018-06-15T03:22:40.273Z,17.2
2018-06-15T03:23:40.282Z,17.23
2018-06-15T03:24:40.258Z,17.2
2018-06-15T03:25:40.242Z,17.22
2018-06-15T03:26:40.293Z,17.21
2018-06-15T03:27:40.263Z,17.2
2018-06-15T03:28:40.275Z,17.22
2018-06-15T03:29:40.273Z,17.2
2018-06-15T03:30:40.264Z,17.23
2018-06-15T03:31:40.263Z,17.19
2018-06-15T03:32:40.277Z,17.22
2018-06-15T03:33:40.256Z,17.22
2018-06-15T03:34:40.482Z,17.23
2018-06-15T03:35:40.296Z,17.22
2018-06-15T03:36:40.280Z,17.23
2018-06-15T03:37:40.693Z,17.24
2018-06-15T03:38:40.323Z,17.23
2018-06-15T03:39:40.455Z,17.22
2018-06-15T03:40:40.317Z,17.25
2018-06-15T03:41:40.259Z,17.25
2018-06-15T03:42:40.244Z,17.25
2018-06-15T03:43:40.460Z,17.25
2018-06-15T03:44:40.254Z,17.25
2018-06-15T03:45:40.273Z,17.25
2018-06-15T03:46:40.279Z,17.26
2018-06-15T03:47:40.385Z,17.27
2018-06-15T03:48:40.368Z,17.26
2018-06-15T03:49:40.257Z,17.27
2018-06-15T03:50:40.401Z,17.29
2018-06-15T03:51:40.328Z,17.29
2018-06-15T03:52:40.299Z,17.29
2018-06-15T03:53:40.290Z,17.31
2018-06-15T03:54:40.307Z,17.31
2018-06-15T03:55:40.393Z,17.33
2018-06-15T03:56:40.270Z,17.34
2018-06-15T03:57:40.278Z,17.34
2018-06-15T03:58:40.409Z,17.35
2018-06-15T03:59:40.288Z,17.36
2018-06-15T04:00:40.292Z,17.35
2018-06-15T04:01:40.287Z,17.34
2018-06-15T04:02:40.343Z,17.32
2018-06-15T04:03:40.315Z,17.34
2018-06-15T04:04:40.295Z,17.33
2018-06-15T04:05:40.272Z,17.32
2018-06-15T04:06:40.372Z,17.34
2018-06-15T04:07:40.722Z,17.34
2018-06-15T04:08:40.284Z,17.34
2018-06-15T04:09:40.308Z,17.31
2018-06-15T04:10:40.346Z,17.3
2018-06-15T04:11:40.631Z,17.31
2018-06-15T04:12:40.351Z,17.29
2018-06-15T04:13:40.297Z,17.29
2018-06-15T04:14:40.499Z,17.29
2018-06-15T04:15:40.295Z,17.28
2018-06-15T04:16:40.367Z,17.29
2018-06-15T04:17:40.463Z,17.28
2018-06-15T04:18:40.301Z,17.28
2018-06-15T04:19:40.326Z,17.27
2018-06-15T04:20:40.346Z,17.27
2018-06-15T04:21:40.312Z,17.28
2018-06-15T04:22:40.292Z,17.27
2018-06-15T04:23:40.282Z,17.27
2018-06-15T04:24:40.336Z,17.27
2018-06-15T04:25:40.296Z,17.26
2018-06-15T04:26:40.360Z,17.27
2018-06-15T04:27:40.354Z,17.27
2018-06-15T04:28:40.344Z,17.26
2018-06-15T04:29:40.324Z,17.27
2018-06-15T04:30:40.281Z,17.25
2018-06-15T04:31:40.301Z,17.28
2018-06-15T04:32:40.551Z,17.28
2018-06-15T04:33:40.365Z,17.29
2018-06-15T04:34:40.329Z,17.31
2018-06-15T04:35:40.325Z,17.29
2018-06-15T04:36:40.290Z,17.3
2018-06-15T04:37:40.316Z,17.32
2018-06-15T04:38:40.319Z,17.33
2018-06-15T04:39:40.281Z,17.33
2018-06-15T04:40:40.318Z,17.33
2018-06-15T04:41:40.310Z,17.34
2018-06-15T04:42:40.402Z,17.38
2018-06-15T04:43:40.297Z,17.38
2018-06-15T04:44:40.430Z,17.37
2018-06-15T04:45:40.287Z,17.39
2018-06-15T04:46:40.340Z,17.39
2018-06-15T04:47:40.379Z,17.4
2018-06-15T04:48:40.295Z,17.41
2018-06-15T04:49:40.390Z,17.45
2018-06-15T04:50:40.356Z,17.46
2018-06-15T04:51:40.315Z,17.47
2018-06-15T04:52:40.332Z,17.49
2018-06-15T04:53:40.401Z,17.48
2018-06-15T04:54:40.390Z,17.51
2018-06-15T04:55:40.328Z,17.52
2018-06-15T04:56:40.379Z,17.53
2018-06-15T04:57:40.329Z,17.55
2018-06-15T04:58:40.308Z,17.56
2018-06-15T04:59:40.347Z,17.56
2018-06-15T05:00:40.341Z,17.53
2018-06-15T05:01:40.357Z,17.54
2018-06-15T05:02:40.411Z,17.57
2018-06-15T05:03:40.354Z,17.54
2018-06-15T05:04:40.311Z,17.57
2018-06-15T05:05:40.416Z,17.58
2018-06-15T05:06:40.384Z,17.55
2018-06-15T05:07:40.361Z,17.57
2018-06-15T05:08:40.399Z,17.58
2018-06-15T05:09:40.309Z,17.58
2018-06-15T05:10:40.323Z,17.59
2018-06-15T05:11:40.396Z,17.61
2018-06-15T05:12:40.335Z,17.65
2018-06-15T05:13:40.319Z,17.65
2018-06-15T05:14:40.491Z,17.65
2018-06-15T05:15:40.325Z,17.62
2018-06-15T05:16:40.320Z,17.56
2018-06-15T05:17:40.310Z,17.57
2018-06-15T05:18:40.318Z,17.61
2018-06-15T05:19:40.357Z,17.59
2018-06-15T05:20:40.308Z,17.6
2018-06-15T05:21:40.319Z,17.64
2018-06-15T05:22:40.326Z,17.67
2018-06-15T05:23:40.389Z,17.69
2018-06-15T05:24:40.341Z,17.69
2018-06-15T05:25:40.385Z,17.72
2018-06-15T05:26:40.353Z,17.74
2018-06-15T05:27:40.532Z,17.76
2018-06-15T05:28:40.336Z,17.79
2018-06-15T05:29:40.512Z,17.81
2018-06-15T05:30:40.340Z,17.81
2018-06-15T05:31:40.351Z,17.84
2018-06-15T05:32:40.376Z,17.83
2018-06-15T05:33:40.416Z,17.85
2018-06-15T05:34:40.325Z,17.8
2018-06-15T05:35:40.464Z,17.83
2018-06-15T05:36:40.340Z,17.83
2018-06-15T05:37:40.326Z,17.81
2018-06-15T05:38:40.314Z,17.8
2018-06-15T05:39:40.334Z,17.81
2018-06-15T05:40:42.331Z,17.8
2018-06-15T05:41:40.353Z,17.79
2018-06-15T05:42:40.978Z,17.77
2018-06-15T05:43:40.356Z,17.78
2018-06-15T05:44:40.343Z,17.77
2018-06-15T05:45:40.331Z,17.76
2018-06-15T05:46:40.556Z,17.79
2018-06-15T05:47:40.338Z,17.81
2018-06-15T05:48:40.351Z,17.81
2018-06-15T05:49:40.313Z,17.85
2018-06-15T05:50:40.336Z,17.87
2018-06-15T05:51:40.552Z,17.88
2018-06-15T05:52:40.338Z,17.88
2018-06-15T05:53:40.309Z,17.89
2018-06-15T05:54:40.387Z,17.9
2018-06-15T05:55:40.790Z,17.91
2018-06-15T05:56:40.365Z,17.92
2018-06-15T05:57:40.369Z,17.94
2018-06-15T05:58:40.355Z,17.92
2018-06-15T05:59:40.399Z,17.97
2018-06-15T06:00:40.458Z,17.99
2018-06-15T06:01:40.362Z,18
2018-06-15T06:02:40.359Z,18.04
2018-06-15T06:03:40.356Z,18.06
2018-06-15T06:04:40.331Z,18.07
2018-06-15T06:05:40.391Z,18.08
2018-06-15T06:06:40.383Z,18.12
2018-06-15T06:07:40.464Z,18.14
2018-06-15T06:08:40.347Z,18.18
2018-06-15T06:09:40.437Z,18.22
2018-06-15T06:10:40.716Z,18.18
2018-06-15T06:11:40.378Z,18.13
2018-06-15T06:12:40.567Z,18.16
2018-06-15T06:13:40.458Z,18.18
2018-06-15T06:14:40.419Z,18.2
2018-06-15T06:15:40.402Z,18.24
2018-06-15T06:16:40.378Z,18.26
2018-06-15T06:17:40.465Z,18.31
2018-06-15T06:18:40.548Z,18.31
2018-06-15T06:19:40.821Z,18.31
2018-06-15T06:20:40.683Z,18.32
2018-06-15T06:21:40.602Z,18.37
2018-06-15T06:22:40.424Z,18.41
2018-06-15T06:23:40.362Z,18.38
2018-06-15T06:24:40.493Z,18.42
2018-06-15T06:25:40.421Z,18.4
2018-06-15T06:26:40.424Z,18.42
2018-06-15T06:27:40.431Z,18.19
2018-06-15T06:28:40.388Z,18.15
2018-06-15T06:29:40.369Z,18.09
2018-06-15T06:30:40.374Z,18.06
2018-06-15T06:31:40.393Z,18.03
2018-06-15T06:32:41.320Z,18
2018-06-15T06:33:40.399Z,18.08
2018-06-15T06:34:40.431Z,18.13
2018-06-15T06:35:40.464Z,18.2
2018-06-15T06:36:40.384Z,18.26
2018-06-15T06:37:40.407Z,18.32
2018-06-15T06:38:40.573Z,18.36
2018-06-15T06:39:40.377Z,18.38
2018-06-15T06:40:40.464Z,18.42
2018-06-15T06:41:40.359Z,18.45
2018-06-15T06:42:40.414Z,18.46
2018-06-15T06:43:40.542Z,18.46
2018-06-15T06:44:40.419Z,18.42
2018-06-15T06:45:40.347Z,18.42
2018-06-15T06:46:40.664Z,18.48
2018-06-15T06:47:40.368Z,18.48
2018-06-15T06:48:40.462Z,18.52
2018-06-15T06:49:40.406Z,18.58
2018-06-15T06:50:41.227Z,18.61
2018-06-15T06:51:40.384Z,18.67
2018-06-15T06:52:40.408Z,18.72
2018-06-15T06:53:40.413Z,18.76
2018-06-15T06:54:40.375Z,18.78
2018-06-15T06:55:40.362Z,18.79
2018-06-15T06:56:40.392Z,18.82
2018-06-15T06:57:40.372Z,18.84
2018-06-15T06:58:40.403Z,18.86
2018-06-15T06:59:40.483Z,18.92
2018-06-15T07:00:40.417Z,18.93
2018-06-15T07:01:40.416Z,18.97
2018-06-15T07:02:40.393Z,19.01
2018-06-15T07:03:40.377Z,19.04
2018-06-15T07:04:40.378Z,19.09
2018-06-15T07:05:40.374Z,19.11
2018-06-15T07:06:40.389Z,19.11
2018-06-15T07:07:40.410Z,19.15
2018-06-15T07:08:40.423Z,19.13
2018-06-15T07:09:40.509Z,19.18
2018-06-15T07:10:40.383Z,19.2
2018-06-15T07:11:40.374Z,19.19
2018-06-15T07:12:40.479Z,19.22
2018-06-15T07:13:40.602Z,19.25
2018-06-15T07:14:40.419Z,19.25
2018-06-15T07:15:40.432Z,19.3
2018-06-15T07:16:40.615Z,19.31
2018-06-15T07:17:40.420Z,19.35
2018-06-15T07:18:40.415Z,19.35
2018-06-15T07:19:40.516Z,19.38
2018-06-15T07:20:40.409Z,19.4
2018-06-15T07:21:40.436Z,19.43
2018-06-15T07:22:40.429Z,19.47
2018-06-15T07:23:41.082Z,19.48
2018-06-15T07:24:40.452Z,19.49
2018-06-15T07:25:40.383Z,19.51
2018-06-15T07:26:40.442Z,19.53
2018-06-15T07:27:40.398Z,19.55
2018-06-15T07:28:40.417Z,19.59
2018-06-15T07:29:40.437Z,19.58
2018-06-15T07:30:40.454Z,19.61
2018-06-15T07:31:40.398Z,19.61
2018-06-15T07:32:40.382Z,19.55
2018-06-15T07:33:40.427Z,19.54
2018-06-15T07:34:40.687Z,19.39
2018-06-15T07:35:40.400Z,19.46
2018-06-15T07:36:40.425Z,19.47
2018-06-15T07:37:40.447Z,19.51
2018-06-15T07:38:40.422Z,19.53
2018-06-15T07:39:40.422Z,19.56
2018-06-15T07:40:40.406Z,19.6
2018-06-15T07:41:40.427Z,19.61
2018-06-15T07:42:40.406Z,19.66
2018-06-15T07:43:47.380Z,19.68
2018-06-15T07:44:40.389Z,19.69
2018-06-15T07:45:40.409Z,19.75
2018-06-15T07:46:40.506Z,19.78
2018-06-15T07:47:40.450Z,19.81
2018-06-15T07:48:40.443Z,19.82
2018-06-15T07:49:40.549Z,19.86
2018-06-15T07:50:40.451Z,19.89
2018-06-15T07:51:40.469Z,19.92
2018-06-15T07:52:40.492Z,19.89
2018-06-15T07:53:40.584Z,19.86
2018-06-15T07:54:40.498Z,19.74
2018-06-15T07:55:40.644Z,19.76
2018-06-15T07:56:40.446Z,19.71
2018-06-15T07:57:40.453Z,19.73
2018-06-15T07:58:40.427Z,19.78
2018-06-15T07:59:40.873Z,19.81
2018-06-15T08:00:40.455Z,19.87
2018-06-15T08:01:41.160Z,19.89
2018-06-15T08:02:40.472Z,19.92
2018-06-15T08:03:40.404Z,19.98
2018-06-15T08:04:40.536Z,19.99
2018-06-15T08:05:40.415Z,19.96
2018-06-15T08:06:40.392Z,19.95
2018-06-15T08:07:40.402Z,19.98
2018-06-15T08:08:40.428Z,19.97
2018-06-15T08:09:40.428Z,20.03
2018-06-15T08:10:40.432Z,20.02
2018-06-15T08:11:40.458Z,20.04
2018-06-15T08:12:40.396Z,19.99
2018-06-15T08:13:40.446Z,19.88
2018-06-15T08:14:40.430Z,19.89
2018-06-15T08:15:40.434Z,19.93
2018-06-15T08:16:40.425Z,19.96
2018-06-15T08:17:40.419Z,19.99
2018-06-15T08:18:40.481Z,20.03
2018-06-15T08:19:40.416Z,20.08
2018-06-15T08:20:40.570Z,20.1
2018-06-15T08:21:40.468Z,20.06
2018-06-15T08:22:40.432Z,20.02
2018-06-15T08:23:40.433Z,20.09
2018-06-15T08:24:40.447Z,20.08
2018-06-15T08:25:43.665Z,20.08
2018-06-15T08:26:40.602Z,20.16
2018-06-15T08:27:40.716Z,20.23
2018-06-15T08:28:40.446Z,20.3
2018-06-15T08:29:40.509Z,20.33
2018-06-15T08:30:40.442Z,20.36
2018-06-15T08:31:40.505Z,20.41
2018-06-15T08:32:40.455Z,20.47
2018-06-15T08:33:40.457Z,20.51
2018-06-15T08:34:40.482Z,20.58
2018-06-15T08:35:40.446Z,20.61
2018-06-15T08:36:40.599Z,20.61
2018-06-15T08:37:40.641Z,20.65
2018-06-15T08:38:40.468Z,20.66
2018-06-15T08:39:40.488Z,20.64
2018-06-15T08:40:40.459Z,20.68
2018-06-15T08:41:40.500Z,20.72
2018-06-15T08:42:40.455Z,20.75
2018-06-15T08:43:40.454Z,20.8
2018-06-15T08:44:41.196Z,20.89
2018-06-15T08:45:40.487Z,20.92
2018-06-15T08:46:40.521Z,20.86
2018-06-15T08:47:40.467Z,20.85
2018-06-15T08:48:40.473Z,20.91
2018-06-15T08:49:40.475Z,20.97
2018-06-15T08:50:40.530Z,21.02
2018-06-15T08:51:40.477Z,21.06
2018-06-15T08:52:40.900Z,20.81
2018-06-15T08:53:40.560Z,20.8
2018-06-15T08:54:40.611Z,20.76
2018-06-15T08:55:40.515Z,20.82
2018-06-15T08:56:40.533Z,20.9
2018-06-15T08:57:40.526Z,20.98
2018-06-15T08:58:40.535Z,21.04
2018-06-15T08:59:40.526Z,21.1
2018-06-15T09:00:40.491Z,21.09
2018-06-15T09:01:40.608Z,21.1
2018-06-15T09:02:40.475Z,21.14
2018-06-15T09:03:40.510Z,21.19
2018-06-15T09:04:40.490Z,21.26
2018-06-15T09:05:40.484Z,21.27
2018-06-15T09:06:40.648Z,21.31
2018-06-15T09:07:40.529Z,21.32
2018-06-15T09:08:40.488Z,21.28
2018-06-15T09:09:40.539Z,21.27
2018-06-15T09:10:40.567Z,21.26
2018-06-15T09:11:40.497Z,21.21
2018-06-15T09:12:40.493Z,21.21
2018-06-15T09:13:40.502Z,21.23
2018-06-15T09:14:40.528Z,21.23
2018-06-15T09:15:40.885Z,21.22
2018-06-15T09:16:40.527Z,21.22
2018-06-15T09:17:40.536Z,21.21
2018-06-15T09:18:40.534Z,21.23
2018-06-15T09:19:40.482Z,21.24
2018-06-15T09:20:40.495Z,21.23
2018-06-15T09:21:40.542Z,21.13
2018-06-15T09:22:40.521Z,21.03
2018-06-15T09:23:40.530Z,21.06
2018-06-15T09:24:40.520Z,21.06
2018-06-15T09:25:40.574Z,21.08
2018-06-15T09:26:40.507Z,21.08
2018-06-15T09:27:40.500Z,21.09
2018-06-15T09:28:40.529Z,21.1
2018-06-15T09:29:40.515Z,21.08
2018-06-15T09:30:40.494Z,21.01
2018-06-15T09:31:40.497Z,21
2018-06-15T09:32:40.940Z,21.01
2018-06-15T09:33:40.755Z,20.99
2018-06-15T09:34:40.517Z,20.92
2018-06-15T09:35:40.510Z,20.94
2018-06-15T09:36:40.504Z,20.93
2018-06-15T09:37:40.489Z,20.95
2018-06-15T09:38:40.513Z,20.95
2018-06-15T09:39:40.550Z,20.95
2018-06-15T09:40:40.538Z,20.97
2018-06-15T09:41:40.564Z,20.99
2018-06-15T09:42:40.542Z,21.01
2018-06-15T09:43:40.523Z,21.04
2018-06-15T09:44:40.509Z,21.05
2018-06-15T09:45:40.526Z,21.03
2018-06-15T09:46:40.536Z,21.03
2018-06-15T09:47:40.518Z,21.02
2018-06-15T09:48:40.602Z,21.04
2018-06-15T09:49:40.543Z,21.06
2018-06-15T09:50:40.574Z,21.1
2018-06-15T09:51:40.652Z,21.11
2018-06-15T09:52:40.589Z,21.17
2018-06-15T09:53:40.528Z,21.24
2018-06-15T09:54:40.636Z,21.23
2018-06-15T09:55:40.645Z,21.2
2018-06-15T09:56:40.577Z,21.19
2018-06-15T09:57:40.537Z,21.24
2018-06-15T09:58:40.581Z,21.34
2018-06-15T09:59:40.529Z,21.4
2018-06-15T10:00:40.826Z,21.49
2018-06-15T10:01:40.550Z,21.35
2018-06-15T10:02:40.575Z,21.39
2018-06-15T10:03:40.555Z,21.41
2018-06-15T10:04:40.562Z,21.43
2018-06-15T10:05:40.654Z,21.48
2018-06-15T10:06:40.617Z,21.53
2018-06-15T10:07:40.587Z,21.57
2018-06-15T10:08:40.562Z,21.56
2018-06-15T10:09:40.554Z,21.56
2018-06-15T10:10:40.547Z,21.56
2018-06-15T10:11:40.591Z,21.52
2018-06-15T10:12:40.545Z,21.51
2018-06-15T10:13:40.565Z,21.58
2018-06-15T10:14:40.713Z,21.57
2018-06-15T10:15:40.605Z,21.54
2018-06-15T10:16:40.978Z,21.57
2018-06-15T10:17:40.789Z,21.61
2018-06-15T10:18:40.575Z,21.52
2018-06-15T10:19:40.545Z,21.53
2018-06-15T10:20:40.544Z,21.56
2018-06-15T10:21:40.559Z,21.54
2018-06-15T10:22:40.567Z,21.58
2018-06-15T10:23:40.606Z,21.59
2018-06-15T10:24:40.607Z,21.62
2018-06-15T10:25:40.586Z,21.6
2018-06-15T10:26:40.604Z,21.58
2018-06-15T10:27:40.588Z,21.54
2018-06-15T10:28:40.562Z,21.51
2018-06-15T10:29:40.586Z,21.48
2018-06-15T10:30:40.692Z,21.39
2018-06-15T10:31:40.609Z,21.35
2018-06-15T10:32:40.860Z,21.37
2018-06-15T10:33:40.582Z,21.39
2018-06-15T10:34:40.578Z,21.4
2018-06-15T10:35:40.600Z,21.41
2018-06-15T10:36:40.596Z,21.43
2018-06-15T10:37:40.619Z,21.47
2018-06-15T10:38:41.453Z,21.53
2018-06-15T10:39:41.753Z,21.58
2018-06-15T10:40:40.598Z,21.62
2018-06-15T10:41:40.612Z,21.57
2018-06-15T10:42:40.624Z,21.62
2018-06-15T10:43:40.748Z,21.64
2018-06-15T10:44:40.887Z,21.53
2018-06-15T10:45:41.029Z,21.51
2018-06-15T10:46:40.549Z,21.51
2018-06-15T10:47:41.419Z,21.54
2018-06-15T10:48:40.601Z,21.4
2018-06-15T10:49:40.605Z,21.4
2018-06-15T10:50:40.666Z,21.42
2018-06-15T10:51:40.914Z,21.46
2018-06-15T10:52:40.604Z,21.48
2018-06-15T10:53:40.751Z,21.47
2018-06-15T10:54:40.569Z,21.5
2018-06-15T10:55:40.587Z,21.46
2018-06-15T10:56:40.643Z,21.46
2018-06-15T10:57:40.675Z,21.57
2018-06-15T10:58:41.043Z,21.57
2018-06-15T10:59:41.499Z,21.59
2018-06-15T11:00:41.386Z,21.62
2018-06-15T11:01:41.593Z,21.64
2018-06-15T11:02:41.618Z,21.61
2018-06-15T11:03:41.360Z,21.64
2018-06-15T11:04:41.314Z,21.58
2018-06-15T11:05:41.405Z,21.56
2018-06-15T11:06:41.361Z,21.56
2018-06-15T11:07:41.329Z,21.57
2018-06-15T11:08:41.501Z,21.57
2018-06-15T11:09:41.502Z,21.58
2018-06-15T11:10:41.908Z,21.56
2018-06-15T11:11:41.464Z,21.6
2018-06-15T11:12:41.717Z,21.59
2018-06-15T11:13:42.037Z,21.64
2018-06-15T11:14:41.304Z,21.69
2018-06-15T11:15:41.607Z,21.72
2018-06-15T11:16:41.768Z,21.81
2018-06-15T11:17:41.256Z,21.88
2018-06-15T11:18:40.819Z,21.89
2018-06-15T11:19:40.633Z,21.89
2018-06-15T11:20:40.703Z,21.9
2018-06-15T11:21:40.669Z,21.91
2018-06-15T11:22:40.756Z,21.98
2018-06-15T11:23:40.821Z,22.02
2018-06-15T11:24:40.717Z,22.05
2018-06-15T11:25:40.786Z,21.91
2018-06-15T11:26:40.847Z,21.94
2018-06-15T11:27:40.686Z,21.97
2018-06-15T11:28:40.633Z,21.93
2018-06-15T11:29:40.660Z,21.93
2018-06-15T11:30:40.647Z,22.01
2018-06-15T11:31:40.666Z,22.04
2018-06-15T11:32:40.656Z,22.04
2018-06-15T11:33:40.660Z,22.06
2018-06-15T11:34:40.662Z,22.04
2018-06-15T11:35:40.639Z,22.09
2018-06-15T11:36:40.647Z,22.11
2018-06-15T11:37:40.679Z,22.05
2018-06-15T11:38:40.658Z,22.06
2018-06-15T11:39:40.656Z,22.12
2018-06-15T11:40:40.654Z,22.07
2018-06-15T11:41:40.691Z,22.04
2018-06-15T11:42:40.676Z,22.05
2018-06-15T11:43:40.642Z,22.05
2018-06-15T11:44:40.663Z,21.95
2018-06-15T11:45:40.697Z,21.91
2018-06-15T11:46:40.648Z,22.01
2018-06-15T11:47:40.652Z,22.09
2018-06-15T11:48:40.668Z,22.14
2018-06-15T11:49:40.724Z,22.09
2018-06-15T11:50:40.777Z,22.12
2018-06-15T11:51:40.740Z,22.13
2018-06-15T11:52:40.686Z,22.11
2018-06-15T11:53:40.687Z,22.04
2018-06-15T11:54:40.735Z,22.04
2018-06-15T11:55:40.706Z,22.13
2018-06-15T11:56:40.908Z,22.14
2018-06-15T11:57:40.832Z,22.16
2018-06-15T11:58:40.718Z,22.19
2018-06-15T11:59:40.871Z,22.14
2018-06-15T12:00:40.667Z,22.1
2018-06-15T12:01:41.077Z,22.12
2018-06-15T12:02:40.803Z,22.12
2018-06-15T12:03:40.766Z,22.16
2018-06-15T12:04:40.858Z,22.21
2018-06-15T12:05:40.683Z,22.29
2018-06-15T12:06:40.725Z,22.26
2018-06-15T12:07:40.866Z,22.33
2018-06-15T12:08:40.712Z,22.37
2018-06-15T12:09:40.699Z,22.27
2018-06-15T12:10:40.728Z,22.24
2018-06-15T12:11:40.861Z,22.26
2018-06-15T12:12:40.699Z,22.3
2018-06-15T12:13:40.723Z,22.25
2018-06-15T12:14:40.955Z,22.29
2018-06-15T12:15:40.735Z,22.32
2018-06-15T12:16:40.820Z,22.38
2018-06-15T12:17:40.877Z,22.42
2018-06-15T12:18:40.704Z,22.42
2018-06-15T12:19:40.865Z,22.44
2018-06-15T12:20:40.777Z,22.48
2018-06-15T12:21:40.784Z,22.53
2018-06-15T12:22:40.824Z,22.58
2018-06-15T12:23:40.735Z,22.61
2018-06-15T12:24:40.897Z,22.66
2018-06-15T12:25:40.727Z,22.76
2018-06-15T12:26:40.748Z,22.79
2018-06-15T12:27:40.727Z,22.98
2018-06-15T12:28:41.314Z,23
2018-06-15T12:29:40.871Z,22.99
2018-06-15T12:30:40.766Z,23.01
2018-06-15T12:31:40.733Z,23.02
2018-06-15T12:32:41.231Z,22.94
2018-06-15T12:33:40.754Z,22.93
2018-06-15T12:34:40.759Z,22.85
2018-06-15T12:35:40.700Z,22.81
2018-06-15T12:36:40.753Z,22.82
2018-06-15T12:37:40.776Z,22.88
2018-06-15T12:38:40.822Z,22.95
2018-06-15T12:39:40.878Z,23.05
2018-06-15T12:40:40.731Z,23.1
2018-06-15T12:41:40.740Z,23.06
2018-06-15T12:42:40.886Z,23.06
2018-06-15T12:43:40.743Z,23.06
2018-06-15T12:44:40.780Z,23.13
2018-06-15T12:45:41.014Z,23.2
2018-06-15T12:46:40.737Z,23.28
2018-06-15T12:47:40.754Z,23.35
2018-06-15T12:48:40.758Z,23.46
2018-06-15T12:49:40.772Z,23.54
2018-06-15T12:50:40.814Z,23.64
2018-06-15T12:51:40.788Z,23.58
2018-06-15T12:52:40.801Z,23.5
2018-06-15T12:53:40.888Z,23.59
2018-06-15T12:54:40.776Z,23.65